Airfield :
LOGIN :

Register | Disclaimer

   EN    FR    IT 

 










Legend :    VFR   Marginal VFR   IFR   Intensive IFR   Very Intensive IFR
Visi :
Ceiling :
>= 8 km
>= 3000ft
5 to 8 km
1000 to 3000 ft
1500m to 5 km
500 to 1000 ft
800 to 1500m
200 to 500 ft
< 800m
< 200 ft
Symbols :   Thunderstorms  Fog  Heavy snow  Heavy precipitations  Wind > 20 kt
SIGMETs :     Misc.  Thunderstorms  Icing  Turbulence  Mountain Waves  Volcanic Ashes






- Airport Elevation : 2119 ft


LERL - Central

CURRENT METAR :
  • 011400Z VRB02KT 0600 R10/P2000 R28/1400D FG OVC002 08/08 Q1021

EXPIRED METARs :
  • 011343Z 35001KT 0600 R10/1900N R28/1800N FG BKN002 08/08 Q1021
  • 011330Z 02002KT 0450 R10/1600U R28/1300D FG VV002 08/08 Q1022
  • 011300Z 09002KT 0400 R10/0700D R28/0750U FG VV002 07/07 Q1022
  • 011230Z VRB02KT 0300 R10/0550D R28/0550N FG VV002 07/07 Q1022
  • 011200Z 05003KT 350V100 0300 R10/0650D R28/0400N FG VV002 07/07 Q1023

TAF AMD TAF LERL
Valid from the 01 at 13:00 until the 02 at 09:00 UTC


011354Z 0113/0209 VRB05KT 3000 BR BKN003 TX11/0116Z TN04/0207Z
TEMPO 0113/0115 0800 FG VV001
BECMG 0114/0115 1500 BCFG BKN010
BECMG 0115/0116 CAVOK
TEMPO 0118/0209 3000 BR BKN003
PROB40
TEMPO 0120/0209 0200 FG VV001



MET'MAP, your aeronautical weather chart ! - Copyright ORBIFLY December 2007 - Disclaimer

ORBIFLY MET'MAP TEAM :

Programming & Development : Alexandra Zaïnal
Concept & original design : Baudouin d'Aumeries
Assistance for programming : Marc-Olivier Méhu
Technical & hardware support : Manuel Goepfert

Contact : metmap@orbifly.com




SOURCES & CREDITS :

   NOAA